Thursday, January 18, 2018, 11:55 PM GMT
Back to Local

CYKZ, Toronto Buttonville

Location: , , Canada Lat: 43.867
Local Time: 11:55 PM GMT (23:55 GMT) Lon: -79.367
Time Zone: GMT Elev: 649 ft

Show me the last for .
Show Decoded

2018-01-18 23:00 METAR CYKZ 182300Z 22009KT 180V250 11SM -SHSN SCT015 OVC020 M06/M09 A2995 RMK
                 CU4ST4 SLP155 =
2018-01-18 22:29 METAR CYKZ 182229Z 22008KT 11SM FEW015 OVC020 M05/M09 A2995 RMK CF1SC7 STRATUS
                 ASOCTD SLP155 =
2018-01-18 22:00 METAR CYKZ 182200Z CCA 22011KT 6SM BR FEW015 OVC020 M05/M09 A2996 RMK CU2SC6 VIS
                 W - NE 12 SLP160 =
2018-01-18 21:24 METAR CYKZ 182124Z 21009KT 190V250 5SM -SN OVC017 M05/M09 A2996 RMK SC8 VIS N -
                 NE 10 SLP159 =
2018-01-18 21:00 METAR CYKZ 182100Z 22007KT 9SM OVC017 M05/M09 A2996 RMK SC8 SLP158 =
2018-01-18 20:50 METAR CYKZ 182050Z 22008KT 190V250 9SM OVC017 M05/M09 A2996 RMK SC8 INTMT -SN
                 SLP158 =
2018-01-18 20:00 METAR CYKZ 182000Z 22006KT 190V270 11SM -SN OVC017 M05/M10 A2996 RMK SC8 SLP160
                 =
2018-01-18 19:00 METAR CYKZ 181900Z 22007KT 200V270 9SM -SN FEW015 OVC020 M06/M10 A2997 RMK
                 CU2SC6 SLP162 =
2018-01-18 18:00 METAR CYKZ 181800Z CCA 22008KT 6SM -SN SCT016 OVC020 M06/M11 A2999 RMK CU3SC5
                 SLP168 =
2018-01-18 17:00 METAR CYKZ 181700Z 19005KT 8SM -SN FEW015 OVC020 M07/M11 A3000 RMK CU2SC6 SLP172
                 =
2018-01-18 16:00 METAR CYKZ 181600Z 23008KT 11SM -SN OVC023 M07/M11 A3002 RMK SC8 SLP179 =
2018-01-18 15:00 METAR CYKZ 181500Z 22008KT 7SM -SN OVC023 M08/M12 A3001 RMK SC8 SLP177 =
2018-01-18 14:00 METAR CYKZ 181400Z 23010KT 6SM -SN OVC020 M08/M12 A3000 RMK SC8 VIS VRB 4 - 8
                 SLP174 =
2018-01-18 13:00 METAR CYKZ 181300Z 23011G17KT 12SM -SN OVC018 M08/M13 A3000 RMK SC8 -SN INTMT
                 STRATUS ASOCTD SLP172 =
2018-01-18 12:38 METAR CYKZ 181238Z 23008G15KT 12SM OVC018 M08/M13 A3000 RMK SC8 STRATUS DVLPG
                 SLP172 =
2018-01-18 12:00 METAR CYKZ 181200Z 22008KT 15SM -SN OVC020 M09/M13 A2999 RMK SC8 SLP171 =
2018-01-18 11:32 METAR CYKZ 181132Z 23009G15KT 15SM -SN OVC022 M09/M13 A2999 RMK SC8 SLP171 =
2018-01-18 11:00 METAR CYKZ 181100Z 23011G16KT 15SM OVC025 M09/M13 A2999 RMK SC8 SLP171 =
2018-01-18 10:00 METAR CYKZ 181000Z 24007G15KT 15SM OVC027 M09/M13 A2999 RMK SC8 SLP169 =
2018-01-18 09:00 METAR CYKZ 180900Z 23008KT 15SM FEW160 M09/M14 A3000 RMK AC1 SLP172 =
2018-01-18 08:00 METAR CYKZ 180800Z 24008G15KT 15SM SKC M08/M13 A3001 RMK SLP175 =
2018-01-18 07:00 METAR CYKZ 180700Z 24009G18KT 15SM SKC M08/M12 A3000 RMK SLP172 =
2018-01-18 06:00 METAR CYKZ 180600Z 23012KT 15SM SKC M08/M11 A3000 RMK SLP173 =
2018-01-18 05:00 METAR CYKZ 180500Z 23011G20KT 15SM FEW040 M07/M11 A3003 RMK CF1 CF TR SLP181 =
2018-01-18 04:00 METAR CYKZ 180400Z 22012KT 15SM FEW160 M07/M11 A3003 RMK AC1 AC TR SLP184 =
2018-01-18 03:00 METAR CYKZ 180300Z 23010G18KT 200V270 15SM FEW160 M07/M11 A3005 RMK AC1 SLP190 =
2018-01-18 02:00 METAR CYKZ 180200Z 23014G22KT 15SM SCT160 M07/M11 A3007 RMK AC4 SLP197 =
2018-01-18 01:00 METAR CYKZ 180100Z 23016G21KT 15SM FEW060 M08/M12 A3011 RMK SC1 SLP212 =
2018-01-18 00:00 METAR CYKZ 180000Z 22011G18KT 15SM SKC M08/M13 A3013 RMK SLP220 =

Support USWX by starting your Amazon purchase here.